sensor_id;sensor_type;location;lat;lon;timestamp;temperature;humidity
55369;DHT22;41247;49.736;8.752;2022-12-10T00:00:02;-0.60;99.90
55369;DHT22;41247;49.736;8.752;2022-12-10T00:03:44;-0.60;99.90
55369;DHT22;41247;49.736;8.752;2022-12-10T00:07:25;-0.60;99.90
55369;DHT22;41247;49.736;8.752;2022-12-10T00:11:09;-0.60;99.90
55369;DHT22;41247;49.736;8.752;2022-12-10T00:14:51;-0.60;99.90
55369;DHT22;41247;49.736;8.752;2022-12-10T00:18:33;-0.50;99.90
55369;DHT22;41247;49.736;8.752;2022-12-10T00:22:14;-0.50;99.90
55369;DHT22;41247;49.736;8.752;2022-12-10T00:25:54;-0.50;99.90
55369;DHT22;41247;49.736;8.752;2022-12-10T00:29:52;-0.50;99.90
55369;DHT22;41247;49.736;8.752;2022-12-10T00:33:33;-0.50;99.90
55369;DHT22;41247;49.736;8.752;2022-12-10T00:37:14;-0.50;99.90
55369;DHT22;41247;49.736;8.752;2022-12-10T00:40:55;-0.60;99.90
55369;DHT22;41247;49.736;8.752;2022-12-10T00:44:35;-0.60;99.90
55369;DHT22;41247;49.736;8.752;2022-12-10T00:48:16;-0.60;99.90
55369;DHT22;41247;49.736;8.752;2022-12-10T00:51:56;-0.60;99.90
55369;DHT22;41247;49.736;8.752;2022-12-10T00:55:37;-0.60;99.90
55369;DHT22;41247;49.736;8.752;2022-12-10T00:59:18;-0.70;99.90
55369;DHT22;41247;49.736;8.752;2022-12-10T01:02:59;-0.70;99.90
55369;DHT22;41247;49.736;8.752;2022-12-10T01:06:52;-0.70;99.90
55369;DHT22;41247;49.736;8.752;2022-12-10T01:10:33;-0.70;99.90
55369;DHT22;41247;49.736;8.752;2022-12-10T01:14:23;-0.70;99.90
55369;DHT22;41247;49.736;8.752;2022-12-10T01:18:04;-0.70;99.90
55369;DHT22;41247;49.736;8.752;2022-12-10T01:21:45;-0.70;99.90
55369;DHT22;41247;49.736;8.752;2022-12-10T01:25:30;-0.70;99.90
55369;DHT22;41247;49.736;8.752;2022-12-10T01:29:11;-0.70;99.90
55369;DHT22;41247;49.736;8.752;2022-12-10T01:32:52;-0.70;99.90
55369;DHT22;41247;49.736;8.752;2022-12-10T01:36:35;-0.70;99.90
55369;DHT22;41247;49.736;8.752;2022-12-10T01:40:17;-0.70;99.90
55369;DHT22;41247;49.736;8.752;2022-12-10T01:44:05;-0.70;99.90
55369;DHT22;41247;49.736;8.752;2022-12-10T01:48:06;-0.70;99.90
55369;DHT22;41247;49.736;8.752;2022-12-10T01:51:49;-0.70;99.90
55369;DHT22;41247;49.736;8.752;2022-12-10T01:55:49;-0.80;99.90
55369;DHT22;41247;49.736;8.752;2022-12-10T01:59:31;-0.80;99.90
55369;DHT22;41247;49.736;8.752;2022-12-10T02:03:24;-0.80;99.90
55369;DHT22;41247;49.736;8.752;2022-12-10T02:08:07;-0.80;99.90
55369;DHT22;41247;49.736;8.752;2022-12-10T02:12:24;-0.80;99.90
55369;DHT22;41247;49.736;8.752;2022-12-10T02:16:19;-0.80;99.90
55369;DHT22;41247;49.736;8.752;2022-12-10T02:20:08;-0.80;99.90
55369;DHT22;41247;49.736;8.752;2022-12-10T02:24:02;-0.80;99.90
55369;DHT22;41247;49.736;8.752;2022-12-10T02:27:47;-0.80;99.90
55369;DHT22;41247;49.736;8.752;2022-12-10T02:31:33;-0.80;99.90
55369;DHT22;41247;49.736;8.752;2022-12-10T02:35:20;-0.80;99.90
55369;DHT22;41247;49.736;8.752;2022-12-10T02:39:07;-0.80;99.90
55369;DHT22;41247;49.736;8.752;2022-12-10T02:42:52;-0.80;99.90
55369;DHT22;41247;49.736;8.752;2022-12-10T02:46:33;-0.80;99.90
55369;DHT22;41247;49.736;8.752;2022-12-10T02:50:16;-0.80;99.90
55369;DHT22;41247;49.736;8.752;2022-12-10T02:54:01;-0.80;99.90
55369;DHT22;41247;49.736;8.752;2022-12-10T02:58:06;-0.80;99.90
55369;DHT22;41247;49.736;8.752;2022-12-10T03:02:10;-0.90;99.90
55369;DHT22;41247;49.736;8.752;2022-12-10T03:06:30;-0.90;99.90
55369;DHT22;41247;49.736;8.752;2022-12-10T03:10:32;-0.90;99.90
55369;DHT22;41247;49.736;8.752;2022-12-10T03:14:30;-0.90;99.90
55369;DHT22;41247;49.736;8.752;2022-12-10T03:18:15;-0.90;99.90
55369;DHT22;41247;49.736;8.752;2022-12-10T03:21:58;-0.90;99.90
55369;DHT22;41247;49.736;8.752;2022-12-10T03:25:39;-0.90;99.90
55369;DHT22;41247;49.736;8.752;2022-12-10T03:29:23;-0.90;99.90
55369;DHT22;41247;49.736;8.752;2022-12-10T03:33:11;-0.90;99.90
55369;DHT22;41247;49.736;8.752;2022-12-10T03:36:52;-0.90;99.90
55369;DHT22;41247;49.736;8.752;2022-12-10T03:40:33;-0.90;99.90
55369;DHT22;41247;49.736;8.752;2022-12-10T03:44:27;-0.90;99.90
55369;DHT22;41247;49.736;8.752;2022-12-10T03:48:11;-0.90;99.90
55369;DHT22;41247;49.736;8.752;2022-12-10T03:51:51;-0.90;99.90
55369;DHT22;41247;49.736;8.752;2022-12-10T03:55:32;-0.90;99.90
55369;DHT22;41247;49.736;8.752;2022-12-10T03:59:13;-0.90;99.90
55369;DHT22;41247;49.736;8.752;2022-12-10T04:02:53;-0.90;99.90
55369;DHT22;41247;49.736;8.752;2022-12-10T04:06:34;-0.90;99.90
55369;DHT22;41247;49.736;8.752;2022-12-10T04:10:17;-0.90;99.90
55369;DHT22;41247;49.736;8.752;2022-12-10T04:13:59;-1.00;99.90
55369;DHT22;41247;49.736;8.752;2022-12-10T04:17:39;-1.00;99.90
55369;DHT22;41247;49.736;8.752;2022-12-10T04:21:20;-1.00;99.90
55369;DHT22;41247;49.736;8.752;2022-12-10T04:25:01;-1.00;99.90
55369;DHT22;41247;49.736;8.752;2022-12-10T04:28:41;-1.00;99.90
55369;DHT22;41247;49.736;8.752;2022-12-10T04:32:24;-1.00;99.90
55369;DHT22;41247;49.736;8.752;2022-12-10T04:36:06;-1.00;99.90
55369;DHT22;41247;49.736;8.752;2022-12-10T04:39:49;-0.90;99.90
55369;DHT22;41247;49.736;8.752;2022-12-10T04:43:30;-0.90;99.90
55369;DHT22;41247;49.736;8.752;2022-12-10T04:47:12;-0.90;99.90
55369;DHT22;41247;49.736;8.752;2022-12-10T04:50:52;-1.00;99.90
55369;DHT22;41247;49.736;8.752;2022-12-10T04:54:33;-0.90;99.90
55369;DHT22;41247;49.736;8.752;2022-12-10T04:58:14;-0.90;99.90
55369;DHT22;41247;49.736;8.752;2022-12-10T05:01:54;-0.90;99.90
55369;DHT22;41247;49.736;8.752;2022-12-10T05:05:35;-0.90;99.90
55369;DHT22;41247;49.736;8.752;2022-12-10T05:09:16;-0.90;99.90
55369;DHT22;41247;49.736;8.752;2022-12-10T05:12:57;-0.90;99.90
55369;DHT22;41247;49.736;8.752;2022-12-10T05:16:38;-0.90;99.90
55369;DHT22;41247;49.736;8.752;2022-12-10T05:20:18;-0.90;99.90
55369;DHT22;41247;49.736;8.752;2022-12-10T05:23:59;-0.80;99.90
55369;DHT22;41247;49.736;8.752;2022-12-10T05:27:39;-0.80;99.90
55369;DHT22;41247;49.736;8.752;2022-12-10T05:31:25;-0.80;99.90
55369;DHT22;41247;49.736;8.752;2022-12-10T05:35:08;-0.80;99.90
55369;DHT22;41247;49.736;8.752;2022-12-10T05:38:49;-0.90;99.90
55369;DHT22;41247;49.736;8.752;2022-12-10T05:42:29;-0.90;99.90
55369;DHT22;41247;49.736;8.752;2022-12-10T05:46:13;-0.90;99.90
55369;DHT22;41247;49.736;8.752;2022-12-10T05:49:59;-0.90;99.90
55369;DHT22;41247;49.736;8.752;2022-12-10T05:58:19;-0.90;99.90
55369;DHT22;41247;49.736;8.752;2022-12-10T06:02:00;-0.90;99.90
55369;DHT22;41247;49.736;8.752;2022-12-10T06:05:41;-0.90;99.90
55369;DHT22;41247;49.736;8.752;2022-12-10T06:09:21;-0.90;99.90
55369;DHT22;41247;49.736;8.752;2022-12-10T06:13:04;-0.90;99.90
55369;DHT22;41247;49.736;8.752;2022-12-10T06:16:45;-0.90;99.90
55369;DHT22;41247;49.736;8.752;2022-12-10T06:20:26;-0.90;99.90
55369;DHT22;41247;49.736;8.752;2022-12-10T06:24:10;-0.90;99.90
55369;DHT22;41247;49.736;8.752;2022-12-10T06:28:28;-0.80;99.90
55369;DHT22;41247;49.736;8.752;2022-12-10T06:32:09;-0.80;99.90
55369;DHT22;41247;49.736;8.752;2022-12-10T06:35:50;-0.80;99.90
55369;DHT22;41247;49.736;8.752;2022-12-10T06:39:30;-0.80;99.90
55369;DHT22;41247;49.736;8.752;2022-12-10T06:43:11;-0.80;99.90
55369;DHT22;41247;49.736;8.752;2022-12-10T06:46:52;-0.80;99.90
55369;DHT22;41247;49.736;8.752;2022-12-10T06:50:32;-0.80;99.90
55369;DHT22;41247;49.736;8.752;2022-12-10T06:54:16;-0.80;99.90
55369;DHT22;41247;49.736;8.752;2022-12-10T07:02:53;-0.70;99.90
55369;DHT22;41247;49.736;8.752;2022-12-10T07:06:34;-0.70;99.90
55369;DHT22;41247;49.736;8.752;2022-12-10T07:14:33;-0.70;99.90
55369;DHT22;41247;49.736;8.752;2022-12-10T07:18:14;-0.70;99.90
55369;DHT22;41247;49.736;8.752;2022-12-10T07:21:55;-0.60;99.90
55369;DHT22;41247;49.736;8.752;2022-12-10T07:25:35;-0.60;99.90
55369;DHT22;41247;49.736;8.752;2022-12-10T07:29:19;-0.60;99.90
55369;DHT22;41247;49.736;8.752;2022-12-10T07:33:00;-0.60;99.90
55369;DHT22;41247;49.736;8.752;2022-12-10T07:36:41;-0.60;99.90
55369;DHT22;41247;49.736;8.752;2022-12-10T07:40:45;-0.60;99.90
55369;DHT22;41247;49.736;8.752;2022-12-10T07:44:32;-0.60;99.90
55369;DHT22;41247;49.736;8.752;2022-12-10T07:48:12;-0.60;99.90
55369;DHT22;41247;49.736;8.752;2022-12-10T07:52:12;-0.50;99.90
55369;DHT22;41247;49.736;8.752;2022-12-10T07:56:31;-0.50;99.90
55369;DHT22;41247;49.736;8.752;2022-12-10T08:00:12;-0.50;99.90
55369;DHT22;41247;49.736;8.752;2022-12-10T08:03:54;-0.50;99.90
55369;DHT22;41247;49.736;8.752;2022-12-10T08:07:36;-0.50;99.90
55369;DHT22;41247;49.736;8.752;2022-12-10T08:11:18;-0.50;99.90
55369;DHT22;41247;49.736;8.752;2022-12-10T08:15:00;-0.50;99.90
55369;DHT22;41247;49.736;8.752;2022-12-10T08:18:41;-0.40;99.90
55369;DHT22;41247;49.736;8.752;2022-12-10T08:22:22;-0.40;99.90
55369;DHT22;41247;49.736;8.752;2022-12-10T08:26:08;-0.40;99.90
55369;DHT22;41247;49.736;8.752;2022-12-10T08:29:50;-0.30;99.90
55369;DHT22;41247;49.736;8.752;2022-12-10T08:33:33;-0.30;99.90
55369;DHT22;41247;49.736;8.752;2022-12-10T08:37:14;-0.30;99.90
55369;DHT22;41247;49.736;8.752;2022-12-10T08:40:56;-0.30;99.90
55369;DHT22;41247;49.736;8.752;2022-12-10T08:44:37;-0.30;99.90
55369;DHT22;41247;49.736;8.752;2022-12-10T08:48:18;-0.30;99.90
55369;DHT22;41247;49.736;8.752;2022-12-10T08:51:59;-0.30;99.90
55369;DHT22;41247;49.736;8.752;2022-12-10T08:55:40;-0.20;99.90
55369;DHT22;41247;49.736;8.752;2022-12-10T08:59:20;-0.20;99.90
55369;DHT22;41247;49.736;8.752;2022-12-10T09:03:03;-0.20;99.90
55369;DHT22;41247;49.736;8.752;2022-12-10T09:06:43;-0.20;99.90
55369;DHT22;41247;49.736;8.752;2022-12-10T09:10:27;-0.10;99.90
55369;DHT22;41247;49.736;8.752;2022-12-10T09:14:08;-0.10;99.90
55369;DHT22;41247;49.736;8.752;2022-12-10T09:17:48;0.00;99.90
55369;DHT22;41247;49.736;8.752;2022-12-10T09:21:29;0.00;99.90
55369;DHT22;41247;49.736;8.752;2022-12-10T09:25:09;0.00;99.90
55369;DHT22;41247;49.736;8.752;2022-12-10T09:28:50;0.10;99.90
55369;DHT22;41247;49.736;8.752;2022-12-10T09:32:31;0.10;99.90
55369;DHT22;41247;49.736;8.752;2022-12-10T09:36:14;0.10;99.90
55369;DHT22;41247;49.736;8.752;2022-12-10T09:39:55;0.10;99.90
55369;DHT22;41247;49.736;8.752;2022-12-10T09:47:16;0.20;99.90
55369;DHT22;41247;49.736;8.752;2022-12-10T09:51:21;0.20;99.90
55369;DHT22;41247;49.736;8.752;2022-12-10T09:55:16;0.30;99.90
55369;DHT22;41247;49.736;8.752;2022-12-10T09:59:02;0.40;99.90
55369;DHT22;41247;49.736;8.752;2022-12-10T10:02:47;0.40;99.90
55369;DHT22;41247;49.736;8.752;2022-12-10T10:06:29;0.40;99.90
55369;DHT22;41247;49.736;8.752;2022-12-10T10:10:30;0.40;99.90
55369;DHT22;41247;49.736;8.752;2022-12-10T10:14:15;0.40;99.90
55369;DHT22;41247;49.736;8.752;2022-12-10T10:18:17;0.40;99.90
55369;DHT22;41247;49.736;8.752;2022-12-10T10:22:06;0.50;99.90
55369;DHT22;41247;49.736;8.752;2022-12-10T10:25:49;0.50;99.90
55369;DHT22;41247;49.736;8.752;2022-12-10T10:29:29;0.50;99.90
55369;DHT22;41247;49.736;8.752;2022-12-10T10:33:13;0.50;99.90
55369;DHT22;41247;49.736;8.752;2022-12-10T10:36:56;0.50;99.90
55369;DHT22;41247;49.736;8.752;2022-12-10T10:40:42;0.50;99.90
55369;DHT22;41247;49.736;8.752;2022-12-10T10:44:26;0.60;99.90
55369;DHT22;41247;49.736;8.752;2022-12-10T10:48:20;0.60;99.90
55369;DHT22;41247;49.736;8.752;2022-12-10T10:52:16;0.60;99.90
55369;DHT22;41247;49.736;8.752;2022-12-10T10:56:06;0.70;99.90
55369;DHT22;41247;49.736;8.752;2022-12-10T10:59:55;0.70;99.90
55369;DHT22;41247;49.736;8.752;2022-12-10T11:03:48;0.90;99.90
55369;DHT22;41247;49.736;8.752;2022-12-10T11:07:36;0.90;99.90
55369;DHT22;41247;49.736;8.752;2022-12-10T11:11:34;1.00;99.90
55369;DHT22;41247;49.736;8.752;2022-12-10T11:19:04;1.10;99.90
55369;DHT22;41247;49.736;8.752;2022-12-10T11:22:56;1.10;99.90
55369;DHT22;41247;49.736;8.752;2022-12-10T11:30:35;1.20;99.90
55369;DHT22;41247;49.736;8.752;2022-12-10T11:38:28;1.10;99.90
55369;DHT22;41247;49.736;8.752;2022-12-10T11:42:47;1.20;99.90
55369;DHT22;41247;49.736;8.752;2022-12-10T11:50:57;1.30;99.90
55369;DHT22;41247;49.736;8.752;2022-12-10T11:55:23;1.30;99.90
55369;DHT22;41247;49.736;8.752;2022-12-10T12:15:44;1.20;99.90
55369;DHT22;41247;49.736;8.752;2022-12-10T12:19:38;1.10;99.90
55369;DHT22;41247;49.736;8.752;2022-12-10T12:23:40;1.10;99.90
55369;DHT22;41247;49.736;8.752;2022-12-10T12:27:42;1.10;99.90
55369;DHT22;41247;49.736;8.752;2022-12-10T12:31:32;1.10;99.90
55369;DHT22;41247;49.736;8.752;2022-12-10T12:35:42;1.00;99.90
55369;DHT22;41247;49.736;8.752;2022-12-10T12:39:38;1.00;99.90
55369;DHT22;41247;49.736;8.752;2022-12-10T12:43:27;1.00;99.90
55369;DHT22;41247;49.736;8.752;2022-12-10T12:47:36;1.00;99.90
55369;DHT22;41247;49.736;8.752;2022-12-10T12:51:39;1.00;99.90
55369;DHT22;41247;49.736;8.752;2022-12-10T12:55:34;0.90;99.90
55369;DHT22;41247;49.736;8.752;2022-12-10T12:59:47;0.90;99.90
55369;DHT22;41247;49.736;8.752;2022-12-10T13:03:39;0.90;99.90
55369;DHT22;41247;49.736;8.752;2022-12-10T13:15:43;0.80;99.90
55369;DHT22;41247;49.736;8.752;2022-12-10T13:23:30;0.80;99.90
55369;DHT22;41247;49.736;8.752;2022-12-10T13:43:20;0.70;99.90
55369;DHT22;41247;49.736;8.752;2022-12-10T13:59:16;0.70;99.90
55369;DHT22;41247;49.736;8.752;2022-12-10T14:07:24;0.70;99.90
55369;DHT22;41247;49.736;8.752;2022-12-10T14:11:13;0.70;99.90
55369;DHT22;41247;49.736;8.752;2022-12-10T14:15:05;0.60;99.90
55369;DHT22;41247;49.736;8.752;2022-12-10T14:18:58;0.60;99.90
55369;DHT22;41247;49.736;8.752;2022-12-10T14:22:55;0.60;99.90
55369;DHT22;41247;49.736;8.752;2022-12-10T14:26:38;0.60;99.90
55369;DHT22;41247;49.736;8.752;2022-12-10T14:35:07;0.50;99.90
55369;DHT22;41247;49.736;8.752;2022-12-10T14:38:55;0.50;99.90
55369;DHT22;41247;49.736;8.752;2022-12-10T14:42:45;0.50;99.90
55369;DHT22;41247;49.736;8.752;2022-12-10T14:46:30;0.50;99.90
55369;DHT22;41247;49.736;8.752;2022-12-10T14:50:13;0.50;99.90
55369;DHT22;41247;49.736;8.752;2022-12-10T14:53:55;0.50;99.90
55369;DHT22;41247;49.736;8.752;2022-12-10T14:57:44;0.50;99.90
55369;DHT22;41247;49.736;8.752;2022-12-10T15:01:32;0.50;99.90
55369;DHT22;41247;49.736;8.752;2022-12-10T15:05:24;0.50;99.90
55369;DHT22;41247;49.736;8.752;2022-12-10T15:09:21;0.50;99.90
55369;DHT22;41247;49.736;8.752;2022-12-10T15:13:03;0.50;99.90
55369;DHT22;41247;49.736;8.752;2022-12-10T15:16:46;0.50;99.90
55369;DHT22;41247;49.736;8.752;2022-12-10T15:20:30;0.40;99.90
55369;DHT22;41247;49.736;8.752;2022-12-10T15:24:38;0.40;99.90
55369;DHT22;41247;49.736;8.752;2022-12-10T15:28:30;0.40;99.90
55369;DHT22;41247;49.736;8.752;2022-12-10T15:32:27;0.40;99.90
55369;DHT22;41247;49.736;8.752;2022-12-10T15:36:19;0.40;99.90
55369;DHT22;41247;49.736;8.752;2022-12-10T15:40:06;0.50;99.90
55369;DHT22;41247;49.736;8.752;2022-12-10T15:44:03;0.40;99.90
55369;DHT22;41247;49.736;8.752;2022-12-10T15:47:46;0.30;99.90
55369;DHT22;41247;49.736;8.752;2022-12-10T15:51:26;0.20;99.90
55369;DHT22;41247;49.736;8.752;2022-12-10T15:55:08;0.10;99.90
55369;DHT22;41247;49.736;8.752;2022-12-10T15:58:50;0.00;99.90
55369;DHT22;41247;49.736;8.752;2022-12-10T16:02:56;0.00;99.90
55369;DHT22;41247;49.736;8.752;2022-12-10T16:06:38;0.00;99.90
55369;DHT22;41247;49.736;8.752;2022-12-10T16:10:20;0.00;99.90
55369;DHT22;41247;49.736;8.752;2022-12-10T16:14:03;0.10;99.90
55369;DHT22;41247;49.736;8.752;2022-12-10T16:17:44;0.00;99.90
55369;DHT22;41247;49.736;8.752;2022-12-10T16:21:24;0.00;99.90
55369;DHT22;41247;49.736;8.752;2022-12-10T16:25:05;0.10;99.90
55369;DHT22;41247;49.736;8.752;2022-12-10T16:28:48;0.10;99.90
55369;DHT22;41247;49.736;8.752;2022-12-10T16:32:29;0.20;99.90
55369;DHT22;41247;49.736;8.752;2022-12-10T16:36:11;0.20;99.90
55369;DHT22;41247;49.736;8.752;2022-12-10T16:39:51;0.10;99.90
55369;DHT22;41247;49.736;8.752;2022-12-10T16:43:32;0.10;99.90
55369;DHT22;41247;49.736;8.752;2022-12-10T16:47:12;0.00;99.90
55369;DHT22;41247;49.736;8.752;2022-12-10T16:50:57;0.00;99.90
55369;DHT22;41247;49.736;8.752;2022-12-10T16:54:38;0.00;99.90
55369;DHT22;41247;49.736;8.752;2022-12-10T16:58:19;0.00;99.90
55369;DHT22;41247;49.736;8.752;2022-12-10T17:02:00;-0.10;99.90
55369;DHT22;41247;49.736;8.752;2022-12-10T17:05:41;-0.10;99.90
55369;DHT22;41247;49.736;8.752;2022-12-10T17:09:22;-0.10;99.90
55369;DHT22;41247;49.736;8.752;2022-12-10T17:13:02;-0.10;99.90
55369;DHT22;41247;49.736;8.752;2022-12-10T17:16:43;-0.10;99.90
55369;DHT22;41247;49.736;8.752;2022-12-10T17:20:23;-0.10;99.90
55369;DHT22;41247;49.736;8.752;2022-12-10T17:24:04;-0.10;99.90
55369;DHT22;41247;49.736;8.752;2022-12-10T17:27:45;-0.10;99.90
55369;DHT22;41247;49.736;8.752;2022-12-10T17:31:26;0.00;99.90
55369;DHT22;41247;49.736;8.752;2022-12-10T17:35:07;0.00;99.90
55369;DHT22;41247;49.736;8.752;2022-12-10T17:38:49;0.00;99.90
55369;DHT22;41247;49.736;8.752;2022-12-10T17:42:29;0.00;99.90
55369;DHT22;41247;49.736;8.752;2022-12-10T17:46:11;-0.10;99.90
55369;DHT22;41247;49.736;8.752;2022-12-10T17:49:52;-0.10;99.90
55369;DHT22;41247;49.736;8.752;2022-12-10T17:53:33;-0.10;99.90
55369;DHT22;41247;49.736;8.752;2022-12-10T17:57:20;-0.10;99.90
55369;DHT22;41247;49.736;8.752;2022-12-10T18:01:01;-0.10;99.90
55369;DHT22;41247;49.736;8.752;2022-12-10T18:04:42;-0.10;99.90
55369;DHT22;41247;49.736;8.752;2022-12-10T18:08:22;-0.10;99.90
55369;DHT22;41247;49.736;8.752;2022-12-10T18:12:03;-0.20;99.90
55369;DHT22;41247;49.736;8.752;2022-12-10T18:15:44;-0.20;99.90
55369;DHT22;41247;49.736;8.752;2022-12-10T18:19:25;-0.20;99.90
55369;DHT22;41247;49.736;8.752;2022-12-10T18:23:08;-0.20;99.90
55369;DHT22;41247;49.736;8.752;2022-12-10T18:26:49;-0.40;99.90
55369;DHT22;41247;49.736;8.752;2022-12-10T18:30:30;-0.40;99.90
55369;DHT22;41247;49.736;8.752;2022-12-10T18:34:12;-0.40;99.90
55369;DHT22;41247;49.736;8.752;2022-12-10T18:37:54;-0.40;99.90
55369;DHT22;41247;49.736;8.752;2022-12-10T18:41:35;-0.50;99.90
55369;DHT22;41247;49.736;8.752;2022-12-10T18:45:17;-0.50;99.90
55369;DHT22;41247;49.736;8.752;2022-12-10T18:48:58;-0.50;99.90
55369;DHT22;41247;49.736;8.752;2022-12-10T18:52:39;-0.50;99.90
55369;DHT22;41247;49.736;8.752;2022-12-10T18:56:25;-0.60;99.90
55369;DHT22;41247;49.736;8.752;2022-12-10T19:00:15;-0.70;99.90
55369;DHT22;41247;49.736;8.752;2022-12-10T19:03:57;-0.80;99.90
55369;DHT22;41247;49.736;8.752;2022-12-10T19:07:38;-0.90;99.90
55369;DHT22;41247;49.736;8.752;2022-12-10T19:11:19;-0.90;99.90
55369;DHT22;41247;49.736;8.752;2022-12-10T19:15:00;-1.00;99.90
55369;DHT22;41247;49.736;8.752;2022-12-10T19:18:41;-1.10;99.90
55369;DHT22;41247;49.736;8.752;2022-12-10T19:22:22;-1.20;99.90
55369;DHT22;41247;49.736;8.752;2022-12-10T19:26:03;-1.30;99.90
55369;DHT22;41247;49.736;8.752;2022-12-10T19:29:45;-1.40;99.90
55369;DHT22;41247;49.736;8.752;2022-12-10T19:33:26;-1.50;99.90
55369;DHT22;41247;49.736;8.752;2022-12-10T19:37:09;-1.60;99.90
55369;DHT22;41247;49.736;8.752;2022-12-10T19:40:50;-1.70;99.90
55369;DHT22;41247;49.736;8.752;2022-12-10T19:44:30;-1.70;99.90
55369;DHT22;41247;49.736;8.752;2022-12-10T19:48:11;-1.80;99.90
55369;DHT22;41247;49.736;8.752;2022-12-10T19:51:51;-1.90;99.90
55369;DHT22;41247;49.736;8.752;2022-12-10T19:55:32;-2.00;99.90
55369;DHT22;41247;49.736;8.752;2022-12-10T19:59:17;-2.00;99.90
55369;DHT22;41247;49.736;8.752;2022-12-10T20:02:59;-2.10;99.90
55369;DHT22;41247;49.736;8.752;2022-12-10T20:06:41;-2.10;99.90
55369;DHT22;41247;49.736;8.752;2022-12-10T20:10:26;-2.20;99.90
55369;DHT22;41247;49.736;8.752;2022-12-10T20:14:09;-2.30;99.90
55369;DHT22;41247;49.736;8.752;2022-12-10T20:17:50;-2.40;99.90
55369;DHT22;41247;49.736;8.752;2022-12-10T20:21:31;-2.40;99.90
55369;DHT22;41247;49.736;8.752;2022-12-10T20:25:13;-2.50;99.90
55369;DHT22;41247;49.736;8.752;2022-12-10T20:28:54;-2.50;99.90
55369;DHT22;41247;49.736;8.752;2022-12-10T20:32:35;-2.60;99.90
55369;DHT22;41247;49.736;8.752;2022-12-10T20:36:26;-2.60;99.90
55369;DHT22;41247;49.736;8.752;2022-12-10T20:40:08;-2.60;99.90
55369;DHT22;41247;49.736;8.752;2022-12-10T20:43:53;-2.70;99.90
55369;DHT22;41247;49.736;8.752;2022-12-10T20:47:34;-2.70;99.90
55369;DHT22;41247;49.736;8.752;2022-12-10T20:51:16;-2.80;99.90
55369;DHT22;41247;49.736;8.752;2022-12-10T20:54:57;-2.80;99.90
55369;DHT22;41247;49.736;8.752;2022-12-10T20:58:37;-2.90;99.90
55369;DHT22;41247;49.736;8.752;2022-12-10T21:02:18;-3.00;99.90
55369;DHT22;41247;49.736;8.752;2022-12-10T21:06:19;-3.00;99.90
55369;DHT22;41247;49.736;8.752;2022-12-10T21:10:02;-3.00;99.90
55369;DHT22;41247;49.736;8.752;2022-12-10T21:13:43;-3.00;99.90
55369;DHT22;41247;49.736;8.752;2022-12-10T21:17:32;-3.10;99.90
55369;DHT22;41247;49.736;8.752;2022-12-10T21:21:13;-3.20;99.90
55369;DHT22;41247;49.736;8.752;2022-12-10T21:25:02;-3.20;99.90
55369;DHT22;41247;49.736;8.752;2022-12-10T21:28:43;-3.30;99.90
55369;DHT22;41247;49.736;8.752;2022-12-10T21:32:24;-3.30;99.90
55369;DHT22;41247;49.736;8.752;2022-12-10T21:36:10;-3.30;99.90
55369;DHT22;41247;49.736;8.752;2022-12-10T21:39:51;-3.30;99.90
55369;DHT22;41247;49.736;8.752;2022-12-10T21:43:32;-3.30;99.90
55369;DHT22;41247;49.736;8.752;2022-12-10T21:47:12;-3.40;99.90
55369;DHT22;41247;49.736;8.752;2022-12-10T21:50:58;-3.40;99.90
55369;DHT22;41247;49.736;8.752;2022-12-10T21:54:42;-3.40;99.90
55369;DHT22;41247;49.736;8.752;2022-12-10T21:58:22;-3.40;99.90
55369;DHT22;41247;49.736;8.752;2022-12-10T22:02:03;-3.40;99.90
55369;DHT22;41247;49.736;8.752;2022-12-10T22:05:45;-3.30;99.90
55369;DHT22;41247;49.736;8.752;2022-12-10T22:09:25;-3.30;99.90
55369;DHT22;41247;49.736;8.752;2022-12-10T22:13:06;-3.20;99.90
55369;DHT22;41247;49.736;8.752;2022-12-10T22:16:46;-3.20;99.90
55369;DHT22;41247;49.736;8.752;2022-12-10T22:20:27;-3.10;99.90
55369;DHT22;41247;49.736;8.752;2022-12-10T22:24:07;-3.10;99.90
55369;DHT22;41247;49.736;8.752;2022-12-10T22:27:48;-3.10;99.90
55369;DHT22;41247;49.736;8.752;2022-12-10T22:31:30;-3.20;99.90
55369;DHT22;41247;49.736;8.752;2022-12-10T22:35:11;-3.20;99.90
55369;DHT22;41247;49.736;8.752;2022-12-10T22:38:52;-3.30;99.90
55369;DHT22;41247;49.736;8.752;2022-12-10T22:42:36;-3.30;99.90
55369;DHT22;41247;49.736;8.752;2022-12-10T22:46:20;-3.40;99.90
55369;DHT22;41247;49.736;8.752;2022-12-10T22:50:01;-3.50;99.90
55369;DHT22;41247;49.736;8.752;2022-12-10T22:53:42;-3.50;99.90
55369;DHT22;41247;49.736;8.752;2022-12-10T22:57:23;-3.60;99.90
55369;DHT22;41247;49.736;8.752;2022-12-10T23:01:04;-3.70;99.90
55369;DHT22;41247;49.736;8.752;2022-12-10T23:04:50;-3.70;99.90
55369;DHT22;41247;49.736;8.752;2022-12-10T23:08:32;-3.70;99.90
55369;DHT22;41247;49.736;8.752;2022-12-10T23:12:13;-3.80;99.90
55369;DHT22;41247;49.736;8.752;2022-12-10T23:15:53;-3.80;99.90
55369;DHT22;41247;49.736;8.752;2022-12-10T23:19:34;-3.70;99.90
55369;DHT22;41247;49.736;8.752;2022-12-10T23:23:19;-3.60;99.90
55369;DHT22;41247;49.736;8.752;2022-12-10T23:27:00;-3.50;99.90
55369;DHT22;41247;49.736;8.752;2022-12-10T23:30:40;-3.40;99.90
55369;DHT22;41247;49.736;8.752;2022-12-10T23:34:21;-3.30;99.90
55369;DHT22;41247;49.736;8.752;2022-12-10T23:38:02;-3.10;99.90
55369;DHT22;41247;49.736;8.752;2022-12-10T23:41:42;-3.10;99.90
55369;DHT22;41247;49.736;8.752;2022-12-10T23:45:23;-3.10;99.90
55369;DHT22;41247;49.736;8.752;2022-12-10T23:49:04;-3.00;99.90
55369;DHT22;41247;49.736;8.752;2022-12-10T23:52:44;-3.00;99.90
55369;DHT22;41247;49.736;8.752;2022-12-10T23:56:26;-2.90;99.90
